Time;durP1;ratioP1;P1;durP2;ratioP2;P2;SDS_P1;SDS_P2;PMS_P1;PMS_P2;Temp;Humidity;BMP_temperature;BMP_pressure;BME280_temperature;BME280_humidity;BME280_pressure;Samples;Min_cycle;Max_cycle;Signal;HPM_P1;HPM_P2
2023/03/27 00:00:57;;;;;;;3.10;1.75;;;;;;;11.18;48.37;97466.59;5125582;28;20036;-72
2023/03/27 00:03:25;;;;;;;3.25;1.63;;;;;;;11.43;48.35;97501.56;5125844;28;20042;-73
2023/03/27 00:06:00;;;;;;;2.20;1.50;;;;;;;10.67;49.21;97367.72;5108466;28;20043;-72
2023/03/27 00:08:28;;;;;;;2.85;1.70;;;;;;;10.64;48.46;97366.19;5125328;28;20127;-70
2023/03/27 00:10:55;;;;;;;3.28;1.98;;;;;;;11.39;48.71;97490.38;5126243;28;20036;-72
2023/03/27 00:13:22;;;;;;;4.35;1.80;;;;;;;11.39;48.56;97479.78;5125348;28;20119;-72
2023/03/27 00:15:52;;;;;;;2.55;1.60;;;;;;;11.40;48.56;97486.75;5125466;28;20085;-71
2023/03/27 00:18:20;;;;;;;3.17;1.77;;;;;;;11.02;48.48;97471.53;5126498;28;20059;-71
2023/03/27 00:20:48;;;;;;;2.72;1.67;;;;;;;11.40;48.82;97488.56;5125651;28;20304;-71
2023/03/27 00:23:16;;;;;;;3.00;1.90;;;;;;;11.37;48.88;97499.44;5126219;28;20044;-71
2023/03/27 00:25:43;;;;;;;2.60;1.90;;;;;;;11.17;49.15;97466.72;5126157;28;20047;-70
2023/03/27 00:28:11;;;;;;;3.08;1.65;;;;;;;10.70;49.25;97393.97;5125417;28;20036;-71
2023/03/27 00:30:39;;;;;;;4.68;2.22;;;;;;;11.29;49.46;97501.94;5125933;28;20097;-71
2023/03/27 00:33:09;;;;;;;3.78;2.22;;;;;;;10.92;49.76;97441.50;5126481;28;20071;-71
2023/03/27 00:35:35;;;;;;;2.65;1.73;;;;;;;10.90;49.57;97439.00;5125104;28;20126;-71
2023/03/27 00:38:02;;;;;;;3.40;2.22;;;;;;;11.02;49.54;97468.06;5126193;28;20315;-71
2023/03/27 00:40:31;;;;;;;2.90;2.20;;;;;;;11.22;49.72;97504.28;5129532;28;20031;-71
2023/03/27 00:42:58;;;;;;;3.35;1.90;;;;;;;11.21;49.73;97499.94;5129599;28;20038;-71
2023/03/27 00:45:29;;;;;;;3.28;2.05;;;;;;;11.00;49.73;97470.00;5129561;28;20039;-71
2023/03/27 00:48:00;;;;;;;4.32;1.85;;;;;;;11.16;49.97;97499.50;5130445;28;20051;-71
2023/03/27 00:50:31;;;;;;;3.42;2.15;;;;;;;11.12;50.11;97490.97;5130256;28;20044;-71
2023/03/27 00:53:04;;;;;;;4.47;2.10;;;;;;;11.10;50.18;97490.28;5129223;28;20039;-72
2023/03/27 00:55:37;;;;;;;3.00;1.80;;;;;;;10.84;50.51;97455.41;5129141;28;20042;-71
2023/03/27 00:58:09;;;;;;;3.05;2.00;;;;;;;10.11;50.44;97341.66;5129980;28;20143;-71
2023/03/27 01:00:36;;;;;;;3.20;2.10;;;;;;;11.01;50.18;97496.38;5129901;28;20043;-71
2023/03/27 01:03:06;;;;;;;3.55;2.20;;;;;;;10.01;50.49;97361.94;5129972;28;20081;-72
2023/03/27 01:05:34;;;;;;;3.17;2.40;;;;;;;10.97;50.27;97502.91;5129142;28;20081;-71
2023/03/27 01:08:03;;;;;;;3.33;2.20;;;;;;;10.94;50.58;97497.88;5130316;28;20039;-71
2023/03/27 01:10:41;;;;;;;3.53;2.17;;;;;;;10.68;51.25;97459.47;5112545;28;20241;-71
2023/03/27 01:13:23;;;;;;;3.92;2.20;;;;;;;10.87;51.49;97509.97;5128892;28;20050;-72
2023/03/27 01:15:58;;;;;;;3.47;2.17;;;;;;;10.69;51.62;97485.00;5130117;28;20039;-71
2023/03/27 01:18:36;;;;;;;3.03;1.75;;;;;;;10.71;51.98;97502.44;5130092;28;20236;-71
2023/03/27 01:21:56;;;;;;;3.50;2.13;;;;;;;10.66;52.58;97501.16;5129724;28;20040;-71
2023/03/27 01:24:54;;;;;;;2.72;1.90;;;;;;;10.57;52.49;97495.69;5129264;28;20051;-71
2023/03/27 01:27:43;;;;;;;2.92;1.70;;;;;;;9.85;52.59;97379.09;5128401;28;20225;-72
2023/03/27 01:30:18;;;;;;;2.67;1.92;;;;;;;10.45;52.23;97498.50;5129109;28;20364;-72
2023/03/27 01:33:11;;;;;;;2.50;1.65;;;;;;;10.34;52.79;97483.53;5129223;28;20233;-71
2023/03/27 01:36:16;;;;;;;3.30;1.50;;;;;;;10.34;53.13;97494.13;5127821;28;20053;-71
2023/03/27 01:41:47;;;;;;;3.25;1.55;;;;;;;9.96;52.88;97468.19;5104096;28;20815;-70
2023/03/27 01:44:19;;;;;;;2.83;1.50;;;;;;;10.06;52.28;97490.28;5102219;28;20052;-70
2023/03/27 01:46:53;;;;;;;4.93;3.20;;;;;;;10.07;53.20;97491.13;5103157;28;20107;-71
2023/03/27 01:49:25;;;;;;;3.75;1.90;;;;;;;9.87;52.21;97447.78;5102504;28;20050;-72
2023/03/27 01:51:57;;;;;;;2.38;1.67;;;;;;;9.63;52.72;97417.06;5102991;28;20040;-71
2023/03/27 01:54:28;;;;;;;2.78;1.60;;;;;;;9.99;52.18;97489.09;5102282;28;20044;-72
2023/03/27 01:57:03;;;;;;;2.20;1.50;;;;;;;9.95;53.05;97487.66;5102996;28;20036;-71
2023/03/27 01:59:34;;;;;;;2.58;1.55;;;;;;;9.89;53.10;97494.31;5102748;28;20094;-72
2023/03/27 02:02:05;;;;;;;3.85;1.90;;;;;;;9.83;52.68;97491.31;5103026;28;20315;-72
2023/03/27 02:04:38;;;;;;;2.30;1.55;;;;;;;9.10;52.78;97394.94;5101881;28;20261;-72
2023/03/27 02:07:10;;;;;;;2.53;1.50;;;;;;;9.74;52.93;97487.63;5101882;28;20279;-71
2023/03/27 02:09:44;;;;;;;2.00;1.38;;;;;;;9.74;53.00;97490.25;5101845;28;20033;-72
2023/03/27 02:12:18;;;;;;;2.22;1.42;;;;;;;9.72;52.94;97484.25;5101913;28;20044;-71
2023/03/27 02:14:50;;;;;;;2.20;1.40;;;;;;;9.72;52.58;97483.41;5101691;28;20058;-72
2023/03/27 02:17:20;;;;;;;3.38;1.50;;;;;;;9.69;52.83;97484.50;5102530;28;20040;-72
2023/03/27 02:19:55;;;;;;;2.42;1.60;;;;;;;9.40;53.65;97441.91;5102434;28;20067;-71
2023/03/27 02:22:21;;;;;;;2.22;1.50;;;;;;;9.59;52.96;97480.94;5102378;28;20047;-72
2023/03/27 02:24:50;;;;;;;2.25;1.70;;;;;;;9.60;52.91;97479.97;5102373;28;20354;-71
2023/03/27 02:27:26;;;;;;;3.20;1.85;;;;;;;9.60;53.95;97469.38;5101528;28;20047;-72
2023/03/27 02:30:01;;;;;;;2.83;1.70;;;;;;;9.30;53.54;97411.84;5101669;28;20032;-72
2023/03/27 02:32:38;;;;;;;2.45;1.88;;;;;;;9.61;54.04;97458.69;5102016;28;20211;-71
2023/03/27 02:35:22;;;;;;;2.40;1.90;;;;;;;9.65;54.60;97469.00;5101365;28;20048;-71
2023/03/27 02:37:59;;;;;;;3.78;2.03;;;;;;;9.61;54.57;97457.84;5102397;28;20040;-72
2023/03/27 02:40:39;;;;;;;2.50;1.85;;;;;;;9.54;55.04;97456.66;5101517;28;20052;-72
2023/03/27 02:43:16;;;;;;;2.80;2.00;;;;;;;9.47;54.45;97463.41;5102131;28;20111;-71
2023/03/27 02:45:51;;;;;;;2.40;1.70;;;;;;;9.39;54.95;97460.50;5101140;28;20082;-71
2023/03/27 02:48:28;;;;;;;3.10;2.10;;;;;;;9.32;54.96;97454.88;5101054;28;20051;-71
2023/03/27 02:50:58;;;;;;;2.50;2.08;;;;;;;9.28;54.35;97450.78;5099823;28;20055;-71
2023/03/27 02:53:28;;;;;;;3.03;2.00;;;;;;;9.29;54.05;97449.81;5088190;28;20237;-71
2023/03/27 02:55:57;;;;;;;3.28;1.80;;;;;;;9.29;54.63;97455.94;5088275;28;20040;-71
2023/03/27 02:58:34;;;;;;;3.42;1.70;;;;;;;9.27;55.23;97457.88;5088747;28;20048;-71
2023/03/27 03:01:02;;;;;;;2.55;1.80;;;;;;;9.04;54.55;97415.72;5088128;28;20036;-72
2023/03/27 03:03:36;;;;;;;2.55;1.88;;;;;;;9.23;55.26;97464.38;5087532;28;20036;-72
2023/03/27 03:06:06;;;;;;;2.50;1.73;;;;;;;9.18;54.73;97461.22;5087233;28;20300;-71
2023/03/27 03:08:37;;;;;;;2.88;1.55;;;;;;;8.58;54.88;97372.63;5087798;28;20053;-71
2023/03/27 03:11:05;;;;;;;2.35;1.95;;;;;;;8.29;54.75;97305.44;5087972;28;20093;-71
2023/03/27 03:13:33;;;;;;;2.20;1.65;;;;;;;8.96;54.69;97419.81;5087114;28;20293;-72
2023/03/27 03:16:00;;;;;;;1.95;1.40;;;;;;;8.85;54.89;97403.97;5087831;28;20036;-72
2023/03/27 03:18:27;;;;;;;2.10;1.30;;;;;;;9.13;54.67;97450.16;5087011;28;20044;-71
2023/03/27 03:20:54;;;;;;;2.40;1.65;;;;;;;8.97;54.93;97436.50;5087693;28;20037;-71
2023/03/27 03:23:22;;;;;;;2.03;1.40;;;;;;;9.02;54.65;97436.13;5087440;28;20044;-71
2023/03/27 03:25:51;;;;;;;2.70;1.48;;;;;;;9.06;54.79;97466.63;5087738;28;20050;-72
2023/03/27 03:28:18;;;;;;;2.33;1.35;;;;;;;8.36;55.00;97348.88;5087744;28;20033;-72
2023/03/27 03:30:50;;;;;;;2.20;1.35;;;;;;;8.91;56.18;97458.13;5087121;28;20185;-72
2023/03/27 03:33:18;;;;;;;2.08;1.35;;;;;;;8.86;55.44;97449.72;5086707;28;20044;-71
2023/03/27 03:35:49;;;;;;;2.00;1.30;;;;;;;8.55;55.75;97401.09;5088053;28;20284;-71
2023/03/27 03:38:23;;;;;;;1.85;1.23;;;;;;;8.01;55.27;97320.78;5087589;28;20174;-71
2023/03/27 03:40:52;;;;;;;2.30;1.60;;;;;;;8.80;55.30;97460.75;5087157;28;20104;-71
2023/03/27 03:43:20;;;;;;;1.95;1.27;;;;;;;8.71;55.88;97437.69;5087483;28;20102;-71
2023/03/27 03:45:49;;;;;;;2.10;1.30;;;;;;;8.66;55.69;97459.19;5087285;28;20062;-72
2023/03/27 03:48:16;;;;;;;2.78;1.58;;;;;;;8.35;55.51;97429.03;5087322;28;20036;-72
2023/03/27 03:50:44;;;;;;;1.60;1.30;;;;;;;8.53;55.68;97459.28;5087779;28;20048;-72
2023/03/27 03:53:11;;;;;;;2.30;1.50;;;;;;;8.58;55.70;97464.22;5087358;28;20040;-71
2023/03/27 03:55:38;;;;;;;2.20;1.40;;;;;;;8.42;55.64;97447.88;5087575;28;20040;-71
2023/03/27 03:58:05;;;;;;;2.50;1.40;;;;;;;8.38;55.73;97436.69;5086403;28;20050;-71
2023/03/27 04:00:37;;;;;;;2.08;1.48;;;;;;;8.58;55.70;97475.63;5087396;28;20051;-71
2023/03/27 04:03:07;;;;;;;3.03;1.50;;;;;;;8.60;55.92;97486.91;5086520;28;20048;-71
2023/03/27 04:05:34;;;;;;;2.22;1.58;;;;;;;8.64;55.44;97475.16;5086925;28;20059;-72
2023/03/27 04:08:01;;;;;;;3.30;2.00;;;;;;;8.64;55.65;97484.88;5087396;28;20201;-72
2023/03/27 04:10:29;;;;;;;2.30;1.50;;;;;;;8.54;55.75;97484.72;5086831;28;20224;-71
2023/03/27 04:12:57;;;;;;;2.65;1.60;;;;;;;8.56;56.12;97488.09;5086177;28;20045;-72
2023/03/27 04:15:24;;;;;;;2.33;1.73;;;;;;;8.55;56.05;97491.69;5086667;28;20047;-71
2023/03/27 04:17:51;;;;;;;4.18;1.55;;;;;;;8.55;55.85;97494.34;5086598;28;20075;-72
2023/03/27 04:20:20;;;;;;;2.40;1.70;;;;;;;8.54;56.11;97492.66;5086496;28;20056;-72
2023/03/27 04:22:48;;;;;;;2.17;1.50;;;;;;;8.20;55.86;97435.47;5087107;28;20040;-71
2023/03/27 04:25:17;;;;;;;2.00;1.40;;;;;;;8.23;56.27;97458.97;5086499;28;20043;-72
2023/03/27 04:27:44;;;;;;;3.05;1.42;;;;;;;8.45;56.28;97508.34;5086755;28;20288;-71
2023/03/27 04:30:14;;;;;;;2.10;1.40;;;;;;;8.41;56.45;97498.97;5085919;28;20052;-72
2023/03/27 04:32:42;;;;;;;2.10;1.50;;;;;;;8.37;56.51;97503.66;5085566;28;20043;-72
2023/03/27 04:35:10;;;;;;;2.63;1.60;;;;;;;8.40;56.58;97513.13;5086191;28;20127;-71
2023/03/27 04:37:41;;;;;;;2.28;1.50;;;;;;;8.36;57.36;97512.53;5086776;28;20040;-71
2023/03/27 04:40:10;;;;;;;1.95;1.35;;;;;;;8.36;56.52;97509.88;5085253;28;20087;-72
2023/03/27 04:42:41;;;;;;;3.10;1.50;;;;;;;8.32;56.73;97505.78;5085571;28;20052;-70
2023/03/27 04:45:11;;;;;;;3.30;1.75;;;;;;;7.93;56.85;97455.06;5086431;28;20037;-71
2023/03/27 04:47:39;;;;;;;2.70;1.40;;;;;;;8.27;57.22;97513.22;5086019;28;20044;-71
2023/03/27 04:50:09;;;;;;;2.10;1.60;;;;;;;8.26;57.22;97514.19;5085205;28;20042;-72
2023/03/27 04:52:36;;;;;;;2.05;1.27;;;;;;;7.88;56.64;97451.06;5085152;28;20089;-72
2023/03/27 04:55:06;;;;;;;2.22;1.50;;;;;;;8.28;57.14;97513.09;5086294;28;20051;-71
2023/03/27 04:57:33;;;;;;;2.13;1.40;;;;;;;8.27;56.56;97515.84;5086486;28;20043;-71
2023/03/27 05:00:00;;;;;;;2.00;1.30;;;;;;;8.05;56.65;97470.91;5084947;28;20045;-72
2023/03/27 05:02:29;;;;;;;1.90;1.30;;;;;;;8.34;56.51;97517.91;5085722;28;20050;-71
2023/03/27 05:05:01;;;;;;;2.58;1.40;;;;;;;8.38;56.30;97517.69;5086288;28;20051;-71
2023/03/27 05:07:29;;;;;;;1.80;1.20;;;;;;;7.98;56.28;97460.81;5085260;28;20067;-72
2023/03/27 05:09:56;;;;;;;2.30;1.30;;;;;;;8.33;56.37;97524.16;5086014;28;20047;-72
2023/03/27 05:12:25;;;;;;;2.35;1.60;;;;;;;8.36;56.47;97525.72;5085698;28;20041;-72
2023/03/27 05:14:51;;;;;;;3.47;1.50;;;;;;;8.17;56.21;97499.03;5084939;28;20058;-71
2023/03/27 05:17:19;;;;;;;2.13;1.52;;;;;;;8.41;56.13;97539.41;5084610;28;20115;-71
2023/03/27 05:19:45;;;;;;;1.90;1.30;;;;;;;8.41;56.15;97543.84;5085846;28;20296;-72
2023/03/27 05:22:13;;;;;;;1.75;1.17;;;;;;;8.38;56.22;97538.81;5068343;28;20304;-71
2023/03/27 05:24:40;;;;;;;1.77;1.20;;;;;;;8.40;56.11;97555.38;5085553;28;20044;-71
2023/03/27 05:27:06;;;;;;;1.95;1.40;;;;;;;8.44;55.80;97546.28;5085693;28;20051;-72
2023/03/27 05:29:35;;;;;;;3.22;1.40;;;;;;;8.47;55.88;97546.88;5085603;28;20045;-71
2023/03/27 05:32:01;;;;;;;1.98;1.30;;;;;;;8.47;55.73;97554.78;5085756;28;20032;-72
2023/03/27 05:34:29;;;;;;;1.92;1.23;;;;;;;8.45;55.78;97555.88;5085310;28;20276;-72
2023/03/27 05:36:56;;;;;;;2.03;1.30;;;;;;;8.42;55.92;97561.38;5085348;28;20119;-71
2023/03/27 05:39:26;;;;;;;2.30;1.65;;;;;;;8.40;55.91;97563.28;5085178;28;20209;-72
2023/03/27 05:41:53;;;;;;;2.30;1.40;;;;;;;8.41;55.89;97565.81;5085247;28;20046;-71
2023/03/27 05:44:19;;;;;;;2.10;1.50;;;;;;;8.42;55.75;97562.22;5085555;28;20176;-72
2023/03/27 05:46:48;;;;;;;3.08;1.55;;;;;;;8.44;55.87;97570.88;5084133;28;20220;-71
2023/03/27 05:49:15;;;;;;;2.50;1.40;;;;;;;8.45;55.95;97572.56;5085207;28;20041;-71
2023/03/27 05:51:42;;;;;;;2.00;1.30;;;;;;;8.38;55.84;97565.19;5084545;28;20288;-71
2023/03/27 05:54:09;;;;;;;3.45;1.50;;;;;;;8.43;55.87;97579.75;5084956;28;20312;-71
2023/03/27 05:56:36;;;;;;;1.98;1.38;;;;;;;8.18;55.85;97527.94;5084300;28;20074;-71
2023/03/27 05:59:02;;;;;;;1.83;1.30;;;;;;;8.46;55.76;97583.94;5085133;28;20040;-72
2023/03/27 06:01:29;;;;;;;2.63;1.48;;;;;;;8.45;55.75;97583.13;5085196;28;20051;-71
2023/03/27 06:03:58;;;;;;;1.77;1.20;;;;;;;8.46;55.96;97592.72;5085544;28;20301;-72
2023/03/27 06:06:25;;;;;;;1.60;1.20;;;;;;;8.45;55.74;97595.47;5085463;28;20280;-71
2023/03/27 06:08:52;;;;;;;2.40;1.30;;;;;;;8.46;55.76;97595.34;5085061;28;20288;-71
2023/03/27 06:11:19;;;;;;;2.08;1.30;;;;;;;8.06;55.72;97541.19;5084874;28;20070;-71
2023/03/27 06:13:45;;;;;;;2.83;1.40;;;;;;;8.43;55.76;97598.22;5085137;28;20043;-72
2023/03/27 06:16:13;;;;;;;4.40;3.30;;;;;;;8.41;55.63;97612.50;5085516;28;20036;-71
2023/03/27 06:18:40;;;;;;;2.45;1.60;;;;;;;8.43;55.67;97605.31;5084933;28;20334;-71
2023/03/27 06:21:09;;;;;;;3.10;1.35;;;;;;;8.41;55.84;97608.06;5084931;28;20054;-71
2023/03/27 06:23:36;;;;;;;2.05;1.35;;;;;;;8.41;55.79;97608.06;5085512;28;20323;-71
2023/03/27 06:26:03;;;;;;;2.65;1.30;;;;;;;8.43;55.62;97616.69;5085561;28;20049;-72
2023/03/27 06:28:29;;;;;;;1.98;1.42;;;;;;;8.42;55.67;97615.03;5087916;28;20036;-71
2023/03/27 06:30:58;;;;;;;2.00;1.20;;;;;;;8.45;55.63;97628.00;5088540;28;20040;-71
2023/03/27 06:33:26;;;;;;;2.47;1.38;;;;;;;8.46;55.73;97616.47;5087833;28;20044;-72
2023/03/27 06:35:53;;;;;;;4.57;1.40;;;;;;;8.21;55.75;97585.78;5087866;28;20044;-71
2023/03/27 06:38:23;;;;;;;4.72;2.90;;;;;;;8.42;55.79;97617.66;5104892;28;20078;-72
2023/03/27 06:40:50;;;;;;;2.10;1.63;;;;;;;8.25;55.62;97596.94;5088424;28;20048;-71
2023/03/27 06:43:21;;;;;;;4.35;1.20;;;;;;;8.46;55.92;97627.03;5088361;28;20045;-71
2023/03/27 06:45:49;;;;;;;2.20;1.50;;;;;;;8.49;55.36;97628.59;5088328;28;20067;-71
2023/03/27 06:48:17;;;;;;;3.92;2.60;;;;;;;8.47;55.85;97623.44;5088496;28;20045;-71
2023/03/27 06:50:45;;;;;;;2.00;1.25;;;;;;;8.41;55.70;97626.53;5088307;28;20123;-71
2023/03/27 06:53:15;;;;;;;3.05;1.40;;;;;;;8.48;55.65;97630.41;5088289;28;20086;-72
2023/03/27 06:55:44;;;;;;;2.30;1.40;;;;;;;8.13;55.76;97592.56;5087345;28;20055;-71
2023/03/27 06:58:13;;;;;;;2.20;1.23;;;;;;;8.53;55.54;97643.25;5070496;28;20040;-71
2023/03/27 07:00:40;;;;;;;1.80;1.27;;;;;;;8.53;55.54;97645.91;5088024;28;20112;-71
2023/03/27 07:03:09;;;;;;;2.33;1.40;;;;;;;8.52;55.51;97647.69;5088017;28;20046;-71
2023/03/27 07:05:37;;;;;;;2.28;1.40;;;;;;;8.56;55.62;97645.69;5088318;28;20051;-71
2023/03/27 07:08:06;;;;;;;2.30;1.50;;;;;;;7.81;55.39;97527.16;5087966;28;20067;-71
2023/03/27 07:10:33;;;;;;;2.30;1.27;;;;;;;8.21;55.77;97579.66;5088281;28;20040;-72
2023/03/27 07:13:01;;;;;;;2.95;1.20;;;;;;;8.63;55.85;97665.41;5087892;28;20052;-71
2023/03/27 07:15:28;;;;;;;1.80;1.30;;;;;;;8.64;55.95;97664.44;5087743;28;20224;-72
2023/03/27 07:17:56;;;;;;;2.10;1.20;;;;;;;8.68;56.12;97664.09;5087814;28;20111;-72
2023/03/27 07:20:26;;;;;;;3.13;1.65;;;;;;;7.93;56.11;97565.00;5088361;28;20053;-72
2023/03/27 07:22:53;;;;;;;3.17;1.73;;;;;;;8.68;56.76;97677.31;5087705;28;20044;-72
2023/03/27 07:25:21;;;;;;;2.35;1.63;;;;;;;8.70;56.70;97665.78;5087749;28;20112;-71
2023/03/27 07:27:48;;;;;;;2.50;1.45;;;;;;;8.68;57.16;97679.94;5086804;28;20052;-71
2023/03/27 07:30:16;;;;;;;2.30;1.48;;;;;;;8.46;57.14;97644.69;5087343;28;20047;-72
2023/03/27 07:32:45;;;;;;;2.42;1.60;;;;;;;8.71;57.45;97680.69;5088097;28;20111;-71
2023/03/27 07:35:13;;;;;;;3.20;1.50;;;;;;;8.71;57.25;97688.59;5087516;28;20112;-71
2023/03/27 07:37:41;;;;;;;3.17;1.45;;;;;;;8.71;57.55;97685.97;5087966;28;20108;-71
2023/03/27 07:40:12;;;;;;;2.60;1.70;;;;;;;8.73;57.83;97684.88;5087355;28;20113;-72
2023/03/27 07:42:43;;;;;;;2.60;1.38;;;;;;;8.51;57.87;97650.47;5087346;28;20044;-72
2023/03/27 07:45:12;;;;;;;2.33;1.48;;;;;;;8.64;58.24;97675.84;5086585;28;20040;-72
2023/03/27 07:47:41;;;;;;;2.30;1.52;;;;;;;8.78;58.37;97695.13;5086427;28;20217;-72
2023/03/27 07:50:10;;;;;;;2.42;1.67;;;;;;;8.58;58.44;97673.66;5086579;28;20085;-71
2023/03/27 07:52:39;;;;;;;2.60;1.60;;;;;;;8.78;58.90;97703.88;5086287;28;20048;-71
2023/03/27 07:55:07;;;;;;;2.30;1.40;;;;;;;8.83;59.09;97709.66;5086112;28;20063;-71
2023/03/27 07:57:38;;;;;;;2.78;1.88;;;;;;;8.80;59.67;97715.19;5069815;28;20047;-71
2023/03/27 08:00:10;;;;;;;1.95;1.27;;;;;;;8.61;59.09;97676.06;5086106;28;20042;-71
2023/03/27 08:02:38;;;;;;;4.05;1.83;;;;;;;8.83;59.33;97714.09;5087176;28;20044;-72
2023/03/27 08:05:10;;;;;;;3.80;1.92;;;;;;;8.81;60.15;97716.88;5086094;28;20178;-72
2023/03/27 08:07:36;;;;;;;2.55;1.67;;;;;;;8.83;59.25;97725.50;5087435;28;20075;-72
2023/03/27 08:10:05;;;;;;;3.90;1.98;;;;;;;8.85;60.12;97717.47;5085971;28;20032;-72
2023/03/27 08:12:33;;;;;;;2.85;1.40;;;;;;;8.87;59.68;97720.84;5086691;28;20040;-71
2023/03/27 08:15:01;;;;;;;2.30;1.30;;;;;;;8.49;59.70;97649.72;5086762;28;20036;-71
2023/03/27 08:17:30;;;;;;;2.33;1.70;;;;;;;8.90;59.43;97721.47;5086670;28;20111;-72
2023/03/27 08:19:57;;;;;;;2.30;1.45;;;;;;;8.98;59.82;97729.66;5087150;28;20047;-71
2023/03/27 08:22:25;;;;;;;2.55;1.52;;;;;;;7.60;59.93;97487.38;5085791;28;20049;-71
2023/03/27 08:24:52;;;;;;;2.60;1.50;;;;;;;9.04;59.96;97711.66;5085407;28;20040;-70
2023/03/27 08:27:19;;;;;;;2.97;1.83;;;;;;;9.01;60.26;97728.59;5086665;28;20059;-71
2023/03/27 08:29:47;;;;;;;4.05;1.88;;;;;;;9.00;60.58;97734.84;5068708;28;20316;-71
2023/03/27 08:32:13;;;;;;;2.78;1.40;;;;;;;8.99;60.42;97726.06;5086573;28;20044;-72
2023/03/27 08:34:41;;;;;;;2.50;1.85;;;;;;;8.82;60.44;97694.78;5086915;28;20047;-72
2023/03/27 08:37:08;;;;;;;2.53;1.67;;;;;;;9.08;60.50;97740.38;5085441;28;20186;-72
2023/03/27 08:39:37;;;;;;;2.30;1.50;;;;;;;9.14;61.08;97731.16;5085167;28;20335;-71
2023/03/27 08:42:07;;;;;;;2.60;1.70;;;;;;;9.18;60.78;97744.03;5086339;28;20044;-71
2023/03/27 08:44:35;;;;;;;2.67;1.50;;;;;;;9.23;60.78;97749.84;5085454;28;20063;-71
2023/03/27 08:47:09;;;;;;;3.88;2.20;;;;;;;9.29;61.53;97745.91;5086407;28;20044;-71
2023/03/27 08:49:41;;;;;;;2.83;1.83;;;;;;;9.10;61.45;97717.34;5085650;28;20044;-71
2023/03/27 08:52:14;;;;;;;4.03;2.20;;;;;;;9.32;61.65;97741.22;5085018;28;20058;-71
2023/03/27 08:54:46;;;;;;;3.78;2.10;;;;;;;9.14;61.53;97723.22;5085862;28;20185;-71
2023/03/27 08:57:18;;;;;;;3.25;1.90;;;;;;;9.37;62.53;97755.91;5084883;28;20277;-71
2023/03/27 08:59:46;;;;;;;5.53;2.67;;;;;;;8.83;60.88;97677.13;5086006;28;20239;-71
2023/03/27 09:02:23;;;;;;;2.92;1.70;;;;;;;9.20;62.34;97733.38;5084925;28;20242;-71
2023/03/27 09:04:58;;;;;;;5.40;2.15;;;;;;;9.43;62.32;97766.03;5084895;28;20207;-72
2023/03/27 09:07:33;;;;;;;2.17;1.63;;;;;;;9.43;62.36;97773.97;5085021;28;20177;-72
2023/03/27 09:10:07;;;;;;;3.45;1.88;;;;;;;9.44;62.90;97788.88;5086061;28;20036;-71
2023/03/27 09:12:51;;;;;;;5.32;1.80;;;;;;;9.36;63.43;97818.50;5086276;28;20041;-72
2023/03/27 09:15:24;;;;;;;3.67;2.10;;;;;;;8.76;61.92;97760.41;5085753;28;20083;-71
2023/03/27 09:17:58;;;;;;;2.33;1.42;;;;;;;9.16;61.25;97841.09;5068702;28;20059;-72
2023/03/27 09:20:32;;;;;;;3.17;2.10;;;;;;;8.79;60.58;97789.25;5085373;28;20082;-71
2023/03/27 09:23:05;;;;;;;2.30;1.35;;;;;;;8.88;61.23;97855.47;5085567;28;20032;-72
2023/03/27 09:25:38;;;;;;;3.33;1.75;;;;;;;8.82;61.09;97863.84;5085560;28;20059;-72
2023/03/27 09:28:17;;;;;;;2.85;1.60;;;;;;;8.75;61.55;97865.22;5084877;28;20041;-71
2023/03/27 09:30:44;;;;;;;2.63;1.80;;;;;;;8.71;60.83;97891.97;5085392;28;20041;-71
2023/03/27 09:33:12;;;;;;;3.50;1.80;;;;;;;8.62;60.56;97902.22;5085675;28;20128;-72
2023/03/27 09:35:39;;;;;;;3.67;1.80;;;;;;;8.58;60.47;97895.47;5085451;28;20032;-72
2023/03/27 09:38:23;;;;;;;3.15;1.98;;;;;;;8.50;60.39;97913.66;5085464;28;20048;-71
2023/03/27 09:40:57;;;;;;;2.80;1.45;;;;;;;8.45;60.55;97915.75;5085216;28;20067;-71
2023/03/27 09:43:28;;;;;;;5.35;1.77;;;;;;;8.25;60.10;97918.94;5085235;28;20107;-71
2023/03/27 09:45:58;;;;;;;3.65;1.60;;;;;;;8.42;60.26;97926.53;5084380;28;20036;-72
2023/03/27 09:48:34;;;;;;;3.33;1.60;;;;;;;8.41;60.07;97943.31;5067951;28;20048;-71
2023/03/27 09:51:04;;;;;;;2.50;1.60;;;;;;;7.56;59.68;97822.53;5084482;28;20098;-72
2023/03/27 09:53:31;;;;;;;3.05;1.98;;;;;;;7.79;59.49;97887.75;5085257;28;20048;-72
2023/03/27 09:56:02;;;;;;;3.25;1.70;;;;;;;8.13;59.45;97967.25;5085226;28;20090;-72
2023/03/27 09:58:34;;;;;;;3.58;1.58;;;;;;;7.99;59.14;97990.13;5085688;28;20288;-72
2023/03/27 10:01:12;;;;;;;4.85;1.70;;;;;;;7.70;59.18;97967.47;5084363;28;20051;-71
2023/03/27 10:03:40;;;;;;;2.42;1.50;;;;;;;7.17;59.55;97900.59;5089176;28;20032;-71
2023/03/27 10:06:10;;;;;;;2.30;1.52;;;;;;;7.78;59.58;98011.81;5088438;28;20060;-71
2023/03/27 10:08:40;;;;;;;2.58;1.67;;;;;;;7.79;59.48;98016.97;5089467;28;20056;-71
2023/03/27 10:11:18;;;;;;;3.03;1.70;;;;;;;7.75;59.55;98017.28;5089192;28;20032;-71
2023/03/27 10:13:46;;;;;;;3.33;1.67;;;;;;;7.47;59.34;97999.75;5087961;28;20067;-71
2023/03/27 10:16:16;;;;;;;4.15;2.13;;;;;;;6.55;59.19;97850.09;5089260;28;20052;-71
2023/03/27 10:18:45;;;;;;;2.67;1.30;;;;;;;5.96;58.89;97759.09;5087832;28;20078;-71
2023/03/27 10:21:20;;;;;;;3.13;2.08;;;;;;;7.59;59.34;98047.28;5088855;28;20188;-71
2023/03/27 10:23:48;;;;;;;2.63;1.60;;;;;;;7.26;58.98;98029.13;5088009;28;20120;-71
2023/03/27 10:26:20;;;;;;;2.63;1.60;;;;;;;7.25;58.44;98042.41;5088844;28;20040;-72
2023/03/27 10:28:48;;;;;;;4.05;1.70;;;;;;;7.31;58.89;98073.66;5105141;28;20052;-71
2023/03/27 10:31:28;;;;;;;2.80;1.80;;;;;;;7.31;58.92;98084.19;5088348;28;20048;-71
2023/03/27 10:33:56;;;;;;;4.55;2.50;;;;;;;7.15;58.62;98075.53;5088821;28;20243;-71
2023/03/27 10:36:25;;;;;;;3.00;2.05;;;;;;;7.28;58.54;98098.41;5088737;28;20296;-72
2023/03/27 10:38:56;;;;;;;7.25;2.53;;;;;;;7.24;57.96;98110.06;5087945;28;20090;-71
2023/03/27 10:41:26;;;;;;;4.63;2.20;;;;;;;6.63;57.31;98037.38;5087361;28;20063;-71
2023/03/27 10:43:55;;;;;;;2.88;1.92;;;;;;;7.12;57.73;98110.81;5088293;28;20041;-71
2023/03/27 10:46:25;;;;;;;3.70;2.80;;;;;;;7.10;57.70;98132.94;5088289;28;20040;-71
2023/03/27 10:48:59;;;;;;;3.20;2.15;;;;;;;6.50;57.22;98048.72;5087507;28;20044;-71
2023/03/27 10:51:34;;;;;;;3.95;2.03;;;;;;;6.72;57.02;98088.63;5087426;28;20037;-71
2023/03/27 10:54:06;;;;;;;;;;;;;;;6.96;56.88;98165.38;5087958;28;20041;-71
2023/03/27 10:56:45;;;;;;;4.15;2.85;;;;;;;6.90;57.09;98182.38;5088464;28;19920;-71
2023/03/27 10:59:18;;;;;;;3.67;2.38;;;;;;;6.90;57.21;98189.44;5088231;28;20055;-70
2023/03/27 11:01:49;;;;;;;3.50;2.45;;;;;;;6.86;57.13;98191.41;5087933;28;20036;-70
2023/03/27 11:04:21;;;;;;;3.30;2.60;;;;;;;6.75;57.37;98210.44;5087873;28;20044;-71
2023/03/27 11:06:51;;;;;;;3.10;2.40;;;;;;;6.70;57.63;98244.06;5088462;28;20050;-71
2023/03/27 11:09:26;;;;;;;3.60;2.67;;;;;;;6.64;57.73;98243.56;5087041;28;20037;-71
2023/03/27 11:11:59;;;;;;;4.88;2.88;;;;;;;6.53;57.96;98243.34;5087789;28;20040;-70
2023/03/27 11:14:33;;;;;;;4.18;3.08;;;;;;;6.51;58.25;98263.63;5087095;28;20124;-72
2023/03/27 11:17:03;;;;;;;;;;;;;;;6.46;58.58;98274.41;5087548;28;20044;-71
2023/03/27 11:19:38;;;;;;;3.83;2.70;;;;;;;6.18;57.62;98245.28;5088265;28;19916;-71
2023/03/27 11:22:11;;;;;;;4.38;2.75;;;;;;;6.33;57.69;98278.66;5088042;28;20112;-70
2023/03/27 11:24:44;;;;;;;3.53;2.55;;;;;;;6.29;57.77;98288.50;5088010;28;20224;-71
2023/03/27 11:27:18;;;;;;;3.97;2.90;;;;;;;6.25;57.74;98292.22;5087086;28;20047;-71
2023/03/27 11:29:55;;;;;;;3.38;2.65;;;;;;;6.22;57.62;98310.81;5086831;28;20040;-71
2023/03/27 11:32:38;;;;;;;4.28;3.13;;;;;;;6.19;57.48;98318.88;5086685;28;20308;-71
2023/03/27 11:35:12;;;;;;;4.10;2.90;;;;;;;5.85;57.70;98269.00;5087554;28;20052;-70
2023/03/27 11:37:45;;;;;;;3.55;2.78;;;;;;;6.18;57.18;98334.75;5086859;28;20080;-71
2023/03/27 11:40:18;;;;;;;4.00;2.97;;;;;;;6.10;56.79;98329.88;5087332;28;20063;-71
2023/03/27 11:42:47;;;;;;;3.50;2.90;;;;;;;6.10;56.93;98335.16;5087791;28;20086;-71
2023/03/27 11:45:17;;;;;;;4.10;2.75;;;;;;;6.09;56.84;98346.59;5087208;28;20049;-70
2023/03/27 11:47:54;;;;;;;4.75;3.45;;;;;;;5.84;56.44;98309.38;5087359;28;20036;-71
2023/03/27 11:50:41;;;;;;;4.75;3.08;;;;;;;6.01;55.79;98354.06;5086803;28;20044;-72
2023/03/27 11:53:23;;;;;;;5.28;3.35;;;;;;;5.84;56.32;98325.16;5086296;28;20050;-71
2023/03/27 11:56:09;;;;;;;5.05;3.08;;;;;;;6.02;55.88;98364.50;5086883;28;20052;-71
2023/03/27 11:58:40;;;;;;;4.40;3.30;;;;;;;6.05;56.45;98359.06;5086487;28;20078;-70
2023/03/27 12:01:16;;;;;;;5.80;3.45;;;;;;;2.91;56.30;97831.03;5085939;28;20046;-70